Time;durP1;ratioP1;P1;durP2;ratioP2;P2;SDS_P1;SDS_P2;PMS_P1;PMS_P2;Temp;Humidity;BMP_temperature;BMP_pressure;BME280_temperature;BME280_humidity;BME280_pressure;Samples;Min_cycle;Max_cycle;Signal;HPM_P1;HPM_P2
2021/10/27 00:00:23;;;;;;;29.55;17.38;;;;;;;2.93;64.59;96251.63;5025518;28;20120;-74
2021/10/27 00:02:49;;;;;;;37.78;18.02;;;;;;;2.79;64.75;96244.66;5024961;28;20674;-74
2021/10/27 00:05:14;;;;;;;32.15;17.50;;;;;;;2.67;64.28;96248.16;5024561;28;20679;-74
2021/10/27 00:07:40;;;;;;;27.27;16.60;;;;;;;2.66;64.12;96247.31;5024895;28;20026;-73
2021/10/27 00:10:05;;;;;;;32.45;16.60;;;;;;;2.58;64.15;96245.19;5025781;28;20087;-74
2021/10/27 00:12:31;;;;;;;28.48;16.30;;;;;;;2.59;64.51;96241.63;5026219;28;20061;-73
2021/10/27 00:14:57;;;;;;;27.02;15.43;;;;;;;2.61;65.15;96244.16;5025976;28;20033;-74
2021/10/27 00:17:22;;;;;;;24.13;15.45;;;;;;;2.63;64.83;96242.22;5024608;28;20481;-73
2021/10/27 00:19:48;;;;;;;24.50;14.68;;;;;;;2.60;65.19;96242.44;5026178;28;20400;-74
2021/10/27 00:22:13;;;;;;;26.45;15.00;;;;;;;2.55;65.45;96240.13;5024669;28;20034;-74
2021/10/27 00:24:40;;;;;;;27.17;15.27;;;;;;;2.52;65.41;96239.47;5026632;28;20022;-75
2021/10/27 00:27:09;;;;;;;25.15;15.07;;;;;;;2.61;65.21;96246.81;5024364;28;20172;-74
2021/10/27 00:29:35;;;;;;;26.95;15.93;;;;;;;2.57;65.30;96245.31;5026301;28;20025;-74
2021/10/27 00:32:00;;;;;;;27.45;14.57;;;;;;;2.54;65.70;96246.38;5025751;28;20479;-73
2021/10/27 00:34:26;;;;;;;27.05;14.30;;;;;;;2.42;64.63;96244.59;5024756;28;20040;-74
2021/10/27 00:36:51;;;;;;;26.77;13.75;;;;;;;2.38;63.95;96243.09;5026204;28;20022;-73
2021/10/27 00:39:16;;;;;;;24.95;13.90;;;;;;;2.38;65.10;96238.66;5024421;28;20101;-73
2021/10/27 00:41:43;;;;;;;24.42;14.90;;;;;;;2.40;65.83;96243.84;5025090;28;20021;-73
2021/10/27 00:44:23;;;;;;;29.70;15.70;;;;;;;2.38;65.73;96236.00;5007802;28;20120;-73
2021/10/27 00:47:12;;;;;;;25.33;15.35;;;;;;;2.36;66.12;96240.56;5024376;28;20022;-73
2021/10/27 00:49:39;;;;;;;25.58;13.82;;;;;;;2.35;65.55;96239.69;5008727;28;20025;-73
2021/10/27 00:52:06;;;;;;;22.08;13.77;;;;;;;2.31;63.46;96238.22;5024237;28;20029;-73
2021/10/27 00:54:31;;;;;;;24.48;13.32;;;;;;;2.13;63.86;96224.44;5024835;28;20109;-73
2021/10/27 00:56:58;;;;;;;22.48;13.05;;;;;;;2.10;64.67;96230.81;5007610;28;20033;-73
2021/10/27 00:59:24;;;;;;;22.08;13.20;;;;;;;2.18;64.57;96242.66;5025839;28;20029;-72
2021/10/27 01:01:49;;;;;;;28.83;14.02;;;;;;;2.15;64.07;96232.28;5007557;28;20017;-73
2021/10/27 01:04:15;;;;;;;19.33;12.70;;;;;;;2.05;64.53;96235.56;5026037;28;20104;-74
2021/10/27 01:06:42;;;;;;;18.27;11.85;;;;;;;2.13;64.73;96240.31;5025938;28;20501;-73
2021/10/27 01:09:07;;;;;;;21.05;12.88;;;;;;;2.12;65.16;96233.34;5007915;28;20025;-73
2021/10/27 01:11:32;;;;;;;20.45;12.05;;;;;;;2.07;65.58;96231.00;5024663;28;20566;-72
2021/10/27 01:13:58;;;;;;;20.98;12.00;;;;;;;2.16;64.67;96236.63;5010179;28;20026;-72
2021/10/27 01:16:23;;;;;;;25.92;13.20;;;;;;;2.15;64.54;96232.28;5029797;28;20021;-75
2021/10/27 01:18:53;;;;;;;18.90;12.23;;;;;;;2.06;64.80;96234.59;5011000;28;20049;-73
2021/10/27 01:21:22;;;;;;;21.52;13.82;;;;;;;2.06;65.66;96239.88;5029473;28;20040;-73
2021/10/27 01:23:48;;;;;;;23.27;13.35;;;;;;;2.10;65.00;96232.59;5029053;28;20543;-73
2021/10/27 01:26:13;;;;;;;21.63;12.93;;;;;;;2.15;65.67;96233.13;5027669;28;20029;-73
2021/10/27 01:28:42;;;;;;;27.10;12.80;;;;;;;2.11;66.00;96236.97;5029256;28;20037;-73
2021/10/27 01:31:08;;;;;;;22.92;12.73;;;;;;;2.18;64.82;96240.00;5011465;28;20091;-73
2021/10/27 01:33:34;;;;;;;21.42;12.40;;;;;;;2.17;66.10;96233.88;5028017;28;20037;-74
2021/10/27 01:35:59;;;;;;;20.40;12.52;;;;;;;2.09;65.72;96234.41;5027129;28;20025;-73
2021/10/27 01:38:25;;;;;;;18.50;11.90;;;;;;;2.06;65.66;96229.31;5028953;28;20033;-72
2021/10/27 01:40:50;;;;;;;20.33;12.15;;;;;;;2.17;64.65;96230.38;5027132;28;20025;-73
2021/10/27 01:43:15;;;;;;;18.33;11.55;;;;;;;2.12;65.12;96232.50;5028737;28;20029;-73
2021/10/27 01:45:41;;;;;;;23.92;12.40;;;;;;;2.15;64.85;96237.56;5028778;28;20032;-73
2021/10/27 01:48:09;;;;;;;20.58;11.73;;;;;;;2.05;65.29;96234.69;5028450;28;20017;-74
2021/10/27 01:50:35;;;;;;;20.23;12.63;;;;;;;1.95;65.45;96234.50;5028948;28;20500;-73
2021/10/27 01:53:01;;;;;;;19.60;12.25;;;;;;;1.94;66.22;96233.63;5010793;28;20029;-74
2021/10/27 01:55:27;;;;;;;22.65;13.25;;;;;;;1.93;66.14;96236.38;5029235;28;20033;-74
2021/10/27 01:57:52;;;;;;;19.75;11.68;;;;;;;1.88;66.24;96243.78;5028312;28;20507;-72
2021/10/27 02:00:18;;;;;;;22.88;12.23;;;;;;;1.83;65.94;96244.94;5028390;28;20084;-72
2021/10/27 02:02:43;;;;;;;21.05;12.02;;;;;;;1.83;65.85;96250.25;5010698;28;20503;-73
2021/10/27 02:05:09;;;;;;;24.58;12.75;;;;;;;1.85;66.00;96243.03;5026878;28;20412;-75
2021/10/27 02:07:34;;;;;;;22.25;13.60;;;;;;;1.84;65.49;96251.06;5027254;28;20030;-73
2021/10/27 02:10:00;;;;;;;23.42;12.70;;;;;;;1.89;65.78;96248.13;5027956;28;20041;-72
2021/10/27 02:12:26;;;;;;;20.52;12.43;;;;;;;1.95;64.90;96248.56;5028291;28;20033;-72
2021/10/27 02:14:52;;;;;;;20.35;11.75;;;;;;;1.76;65.34;96248.94;5027830;28;20087;-74
2021/10/27 02:17:17;;;;;;;24.33;13.32;;;;;;;1.75;65.61;96257.84;5026775;28;20435;-75
2021/10/27 02:19:43;;;;;;;23.17;13.38;;;;;;;1.74;66.94;96256.16;5027741;28;20037;-73
2021/10/27 02:22:08;;;;;;;20.27;11.57;;;;;;;1.81;66.15;96257.44;5026929;28;20022;-72
2021/10/27 02:24:33;;;;;;;21.92;12.65;;;;;;;1.87;65.95;96252.69;5027387;28;20036;-73
2021/10/27 02:26:59;;;;;;;22.38;12.73;;;;;;;1.91;66.86;96257.66;5010141;28;20033;-74
2021/10/27 02:29:25;;;;;;;24.85;14.20;;;;;;;1.88;68.18;96252.56;5027956;28;20026;-74
2021/10/27 02:31:51;;;;;;;26.35;13.32;;;;;;;1.88;68.09;96257.00;5026295;28;20033;-73
2021/10/27 02:34:16;;;;;;;20.85;13.30;;;;;;;1.90;67.73;96255.13;5026499;28;20036;-74
2021/10/27 02:36:42;;;;;;;24.23;13.23;;;;;;;1.88;66.70;96249.94;5027423;28;20080;-73
2021/10/27 02:39:08;;;;;;;23.35;13.35;;;;;;;1.81;65.98;96252.13;5028055;28;20033;-73
2021/10/27 02:41:34;;;;;;;23.80;12.73;;;;;;;1.74;65.97;96253.50;5026039;28;20520;-73
2021/10/27 02:43:59;;;;;;;23.08;12.65;;;;;;;1.69;65.32;96247.66;5026408;28;20036;-73
2021/10/27 02:46:24;;;;;;;25.40;13.18;;;;;;;1.63;64.85;96253.38;5027456;28;20025;-73
2021/10/27 02:48:50;;;;;;;23.77;13.00;;;;;;;1.60;65.93;96255.25;5009669;28;20105;-74
2021/10/27 02:51:16;;;;;;;22.48;12.93;;;;;;;1.61;65.76;96256.09;5026088;28;20025;-74
2021/10/27 02:53:41;;;;;;;22.75;12.70;;;;;;;1.65;66.81;96251.44;5009352;28;20036;-73
2021/10/27 02:56:07;;;;;;;23.48;13.43;;;;;;;1.68;67.69;96257.38;5027676;28;20021;-74
2021/10/27 02:58:32;;;;;;;23.38;12.23;;;;;;;1.69;67.08;96258.25;5026861;28;20026;-73
2021/10/27 03:00:58;;;;;;;20.42;12.63;;;;;;;1.73;66.80;96251.78;5026230;28;20033;-74
2021/10/27 03:03:24;;;;;;;21.90;12.05;;;;;;;1.71;66.19;96251.91;5026013;28;20022;-72
2021/10/27 03:05:50;;;;;;;20.90;11.38;;;;;;;1.70;66.51;96257.28;5026035;28;20025;-73
2021/10/27 03:08:15;;;;;;;22.50;12.82;;;;;;;1.69;66.17;96253.78;5027821;28;20024;-73
2021/10/27 03:10:40;;;;;;;21.52;12.27;;;;;;;1.73;65.69;96265.88;5025229;28;20099;-73
2021/10/27 03:13:06;;;;;;;22.25;11.88;;;;;;;1.76;65.82;96259.53;5025947;28;20482;-73
2021/10/27 03:15:31;;;;;;;22.45;13.15;;;;;;;1.80;66.81;96263.69;5008661;28;20107;-74
2021/10/27 03:17:57;;;;;;;19.42;12.38;;;;;;;1.81;66.35;96267.16;5009494;28;20025;-72
2021/10/27 03:20:23;;;;;;;20.48;12.40;;;;;;;1.87;66.08;96269.38;5009031;28;20411;-73
2021/10/27 03:22:48;;;;;;;18.48;11.52;;;;;;;1.91;65.26;96268.25;5026761;28;20112;-73
2021/10/27 03:25:14;;;;;;;25.08;13.63;;;;;;;1.93;65.39;96265.50;5025615;28;20339;-73
2021/10/27 03:27:39;;;;;;;21.45;12.25;;;;;;;1.95;65.09;96263.59;5025146;28;20029;-73
2021/10/27 03:30:06;;;;;;;23.77;13.10;;;;;;;1.84;66.05;96273.09;5025717;28;20385;-74
2021/10/27 03:32:32;;;;;;;18.60;11.50;;;;;;;1.89;65.60;96266.63;5026225;28;20025;-74
2021/10/27 03:34:57;;;;;;;25.27;12.23;;;;;;;1.85;66.30;96271.31;5026511;28;20091;-73
2021/10/27 03:37:22;;;;;;;22.77;12.80;;;;;;;1.93;66.37;96269.00;5025865;28;20040;-74
2021/10/27 03:39:48;;;;;;;20.33;12.38;;;;;;;1.91;66.12;96276.19;5025149;28;20033;-73
2021/10/27 03:42:13;;;;;;;21.80;12.73;;;;;;;1.82;67.20;96269.69;5025108;28;20026;-73
2021/10/27 03:44:39;;;;;;;21.38;12.90;;;;;;;1.90;66.03;96273.63;5026252;28;20026;-73
2021/10/27 03:47:04;;;;;;;21.73;12.57;;;;;;;1.82;66.75;96274.97;5026552;28;20033;-73
2021/10/27 03:49:30;;;;;;;25.38;12.35;;;;;;;1.82;67.25;96274.16;5026180;28;20028;-74
2021/10/27 03:51:55;;;;;;;21.75;13.50;;;;;;;1.85;66.94;96271.31;5025196;28;20495;-74
2021/10/27 03:54:20;;;;;;;21.08;12.82;;;;;;;1.78;66.93;96265.56;5026335;28;20052;-72
2021/10/27 03:56:46;;;;;;;26.65;16.52;;;;;;;1.83;66.53;96265.25;5026315;28;20032;-73
2021/10/27 03:59:12;;;;;;;25.67;15.65;;;;;;;1.79;67.37;96275.19;5024771;28;20036;-73
2021/10/27 04:01:37;;;;;;;25.88;15.38;;;;;;;1.81;66.78;96278.59;5024891;28;20048;-73
2021/10/27 04:04:03;;;;;;;24.00;14.45;;;;;;;1.75;67.45;96273.69;5024837;28;20104;-73
2021/10/27 04:06:28;;;;;;;29.52;13.90;;;;;;;1.70;66.83;96281.09;5026172;28;20029;-73
2021/10/27 04:08:54;;;;;;;24.83;13.55;;;;;;;1.66;66.69;96276.97;5026405;28;20026;-73
2021/10/27 04:11:19;;;;;;;25.23;13.73;;;;;;;1.67;66.78;96270.72;5025833;28;20490;-74
2021/10/27 04:13:45;;;;;;;24.23;14.23;;;;;;;1.66;66.64;96269.84;5024868;28;20087;-74
2021/10/27 04:16:10;;;;;;;25.40;15.15;;;;;;;1.61;65.88;96274.63;5025834;28;20022;-75
2021/10/27 04:18:36;;;;;;;26.85;15.18;;;;;;;1.54;67.18;96270.66;5026137;28;20022;-72
2021/10/27 04:21:01;;;;;;;32.88;17.23;;;;;;;1.55;67.10;96278.50;5024159;28;20041;-74
2021/10/27 04:23:27;;;;;;;26.80;16.75;;;;;;;1.57;67.17;96283.69;5026106;28;20061;-73
2021/10/27 04:25:52;;;;;;;29.23;15.75;;;;;;;1.59;66.65;96279.16;5024633;28;20037;-73
2021/10/27 04:28:18;;;;;;;26.58;14.65;;;;;;;1.65;66.27;96277.88;5024667;28;20017;-72
2021/10/27 04:30:43;;;;;;;21.88;13.27;;;;;;;1.71;65.76;96274.84;5025109;28;20493;-74
2021/10/27 04:33:27;;;;;;;25.23;13.65;;;;;;;1.66;65.78;96275.16;5025339;28;20408;-74
2021/10/27 04:35:52;;;;;;;28.92;13.27;;;;;;;1.52;66.27;96283.97;5025801;28;20025;-72
2021/10/27 04:38:20;;;;;;;20.88;12.52;;;;;;;1.41;66.17;96287.34;5025634;28;20029;-74
2021/10/27 04:40:45;;;;;;;20.73;11.88;;;;;;;1.32;66.55;96287.94;5008493;28;20036;-73
2021/10/27 04:43:11;;;;;;;22.05;13.05;;;;;;;1.33;66.57;96282.53;5024533;28;20108;-73
2021/10/27 04:45:36;;;;;;;23.48;13.32;;;;;;;1.32;67.13;96293.22;5024342;28;20499;-73
2021/10/27 04:48:02;;;;;;;23.63;14.23;;;;;;;1.28;67.06;96297.84;5027475;28;20026;-74
2021/10/27 04:50:27;;;;;;;29.20;13.68;;;;;;;1.23;67.34;96299.91;5028169;28;20560;-73
2021/10/27 04:52:53;;;;;;;22.27;12.75;;;;;;;1.18;66.78;96300.22;5011807;28;20091;-74
2021/10/27 04:55:18;;;;;;;22.55;12.90;;;;;;;1.21;67.38;96301.84;5027994;28;20084;-73
2021/10/27 04:57:44;;;;;;;19.50;11.57;;;;;;;1.31;66.52;96307.34;5028435;28;20088;-74
2021/10/27 05:00:10;;;;;;;22.67;12.70;;;;;;;1.39;66.46;96301.59;5029278;28;20083;-74
2021/10/27 05:02:35;;;;;;;21.58;12.63;;;;;;;1.43;65.94;96305.75;5029419;28;20059;-74
2021/10/27 05:05:01;;;;;;;23.92;13.18;;;;;;;1.53;65.76;96306.81;5029809;28;20514;-74
2021/10/27 05:07:26;;;;;;;33.05;13.35;;;;;;;1.51;66.08;96310.53;5029305;28;20022;-73
2021/10/27 05:09:52;;;;;;;24.67;13.75;;;;;;;1.47;66.77;96312.50;5011648;28;20054;-74
2021/10/27 05:12:17;;;;;;;24.85;13.93;;;;;;;1.46;66.26;96321.41;5028939;28;20037;-73
2021/10/27 05:14:43;;;;;;;24.30;14.77;;;;;;;1.53;66.88;96321.88;4995357;28;20029;-74
2021/10/27 05:17:10;;;;;;;24.60;14.75;;;;;;;1.62;66.31;96325.69;5027504;28;20561;-74
2021/10/27 05:19:39;;;;;;;27.48;14.40;;;;;;;1.62;66.44;96328.34;5027852;28;20029;-75
2021/10/27 05:22:05;;;;;;;24.70;13.95;;;;;;;1.64;66.98;96327.31;5011513;28;20163;-73
2021/10/27 05:24:30;;;;;;;26.45;14.05;;;;;;;1.66;66.50;96325.41;5029046;28;20108;-74
2021/10/27 05:26:56;;;;;;;30.75;16.50;;;;;;;1.69;66.48;96327.84;5029420;28;20366;-73
2021/10/27 05:29:22;;;;;;;26.90;14.82;;;;;;;1.71;65.72;96335.66;5027275;28;20083;-74
2021/10/27 05:31:48;;;;;;;30.67;15.40;;;;;;;1.71;66.47;96333.03;5027953;28;20038;-72
2021/10/27 05:34:13;;;;;;;28.42;15.38;;;;;;;1.77;66.58;96348.53;5028332;28;20091;-73
2021/10/27 05:36:39;;;;;;;30.50;14.80;;;;;;;2.05;65.24;96337.91;5029201;28;20033;-73
2021/10/27 05:39:04;;;;;;;28.25;15.45;;;;;;;2.17;64.27;96341.53;5028797;28;20030;-74
2021/10/27 05:41:31;;;;;;;25.48;13.98;;;;;;;2.30;63.80;96344.22;5027706;28;20033;-74
2021/10/27 05:43:57;;;;;;;32.15;14.48;;;;;;;2.42;63.26;96343.38;5029288;28;20033;-74
2021/10/27 05:46:22;;;;;;;28.60;14.05;;;;;;;2.47;63.76;96343.06;5027209;28;20424;-74
2021/10/27 05:48:56;;;;;;;22.50;13.40;;;;;;;2.69;63.12;96339.81;5027663;28;20059;-75
2021/10/27 05:51:37;;;;;;;26.63;14.10;;;;;;;2.78;63.57;96348.94;5028260;28;20026;-74
2021/10/27 05:56:47;;;;;;;27.98;14.60;;;;;;;3.07;62.29;96359.31;5027849;28;20444;-76
2021/10/27 05:59:12;;;;;;;25.35;13.75;;;;;;;3.24;61.37;96359.91;5027175;28;20476;-74
2021/10/27 06:01:37;;;;;;;25.20;14.23;;;;;;;3.40;61.27;96367.63;5028715;28;20037;-74
2021/10/27 06:04:03;;;;;;;26.17;15.23;;;;;;;3.47;60.91;96378.66;5028154;28;20021;-74
2021/10/27 06:06:28;;;;;;;25.98;15.90;;;;;;;3.43;61.17;96371.88;5028426;28;20180;-75
2021/10/27 06:08:57;;;;;;;28.08;15.05;;;;;;;3.48;61.29;96374.22;5028083;28;20030;-73
2021/10/27 06:11:22;;;;;;;22.45;13.77;;;;;;;3.66;61.35;96374.72;5028003;28;20054;-74
2021/10/27 06:13:48;;;;;;;34.25;16.83;;;;;;;3.74;61.60;96379.47;5028365;28;20048;-74
2021/10/27 06:16:14;;;;;;;35.08;19.92;;;;;;;3.76;61.38;96381.03;5027972;28;20440;-76
2021/10/27 06:18:40;;;;;;;34.75;20.50;;;;;;;3.81;61.34;96386.00;5010858;28;20408;-74
2021/10/27 06:21:07;;;;;;;36.05;19.83;;;;;;;3.90;61.40;96389.81;5027807;28;20067;-75
2021/10/27 06:23:32;;;;;;;29.58;16.95;;;;;;;4.05;60.41;96385.16;5026909;28;20557;-73
2021/10/27 06:25:58;;;;;;;36.50;16.42;;;;;;;4.19;60.48;96390.31;5026386;28;20021;-74
2021/10/27 06:28:27;;;;;;;28.60;15.63;;;;;;;4.45;61.13;96390.19;5027954;28;20087;-74
2021/10/27 06:31:02;;;;;;;27.50;15.13;;;;;;;4.65;60.20;96400.25;5028243;28;20125;-74
2021/10/27 06:36:20;;;;;;;29.67;15.80;;;;;;;4.74;60.36;96404.88;5027473;28;20029;-74
2021/10/27 06:46:41;;;;;;;33.88;20.35;;;;;;;6.00;58.08;96401.41;5027159;28;20061;-73
2021/10/27 06:49:07;;;;;;;30.55;18.50;;;;;;;6.24;56.97;96413.75;5026478;28;20420;-75
2021/10/27 06:51:33;;;;;;;23.50;14.35;;;;;;;6.40;57.03;96413.34;5009327;28;20048;-76
2021/10/27 06:53:58;;;;;;;20.42;12.32;;;;;;;6.50;57.57;96408.94;4993742;28;20032;-75
2021/10/27 06:56:24;;;;;;;23.00;14.88;;;;;;;6.67;57.09;96406.69;5025737;28;20033;-75
2021/10/27 07:17:37;;;;;;;22.05;13.45;;;;;;;7.54;56.83;96395.81;5026558;28;20032;-73
2021/10/27 07:20:05;;;;;;;25.27;12.65;;;;;;;7.62;57.01;96398.69;5027158;28;20037;-74
2021/10/27 07:22:30;;;;;;;18.08;12.60;;;;;;;7.57;57.26;96400.88;5025309;28;20088;-74
2021/10/27 07:24:57;;;;;;;26.88;13.60;;;;;;;7.48;57.24;96391.84;5025811;28;20466;-74
2021/10/27 07:27:22;;;;;;;26.73;14.45;;;;;;;7.62;57.11;96398.69;5025681;28;20427;-73
2021/10/27 07:29:48;;;;;;;22.40;13.20;;;;;;;7.71;56.88;96402.34;5025176;28;20029;-74
2021/10/27 07:32:15;;;;;;;26.98;14.85;;;;;;;7.90;56.64;96396.22;5027071;28;20534;-75
2021/10/27 07:34:44;;;;;;;31.70;14.93;;;;;;;7.89;56.41;96394.53;5025017;28;20358;-74
2021/10/27 07:42:25;;;;;;;27.55;14.88;;;;;;;8.13;56.02;96389.78;5027066;28;20021;-75
2021/10/27 07:44:51;;;;;;;25.88;15.00;;;;;;;8.28;56.07;96391.09;5026624;28;20523;-75
2021/10/27 07:47:17;;;;;;;31.55;14.55;;;;;;;8.40;56.04;96386.44;5024960;28;20424;-74
2021/10/27 07:49:42;;;;;;;25.73;13.95;;;;;;;8.39;55.85;96378.56;5025327;28;20032;-73
2021/10/27 07:52:08;;;;;;;25.48;15.38;;;;;;;8.43;55.16;96379.97;4992463;28;20492;-75
2021/10/27 07:54:34;;;;;;;21.85;13.43;;;;;;;8.58;55.41;96384.94;5025636;28;20538;-74
2021/10/27 07:57:00;;;;;;;25.55;13.65;;;;;;;8.68;54.88;96382.25;5025888;28;20664;-74
2021/10/27 07:59:26;;;;;;;23.20;13.82;;;;;;;8.74;54.38;96393.25;5025028;28;20037;-75
2021/10/27 08:01:51;;;;;;;23.73;15.07;;;;;;;8.84;54.31;96395.06;5026197;28;20323;-74
2021/10/27 08:04:17;;;;;;;25.25;14.27;;;;;;;9.01;53.93;96377.47;5026292;28;20403;-75
2021/10/27 08:06:44;;;;;;;24.52;13.93;;;;;;;9.01;53.75;96383.63;5026225;28;20029;-74
2021/10/27 08:09:10;;;;;;;31.13;14.70;;;;;;;9.10;53.55;96384.63;5024655;28;20030;-74
2021/10/27 08:11:35;;;;;;;26.17;15.25;;;;;;;9.03;53.82;96387.00;5026113;28;20048;-75
2021/10/27 08:14:01;;;;;;;23.55;16.10;;;;;;;9.12;53.38;96382.66;5024038;28;20042;-74
2021/10/27 08:16:26;;;;;;;26.00;16.55;;;;;;;9.21;53.05;96382.75;5026394;28;20503;-75
2021/10/27 08:18:52;;;;;;;24.42;16.45;;;;;;;9.36;52.73;96385.81;5024484;28;20017;-74
2021/10/27 08:21:17;;;;;;;23.13;15.63;;;;;;;9.33;53.10;96381.59;5025774;28;20079;-74
2021/10/27 08:23:45;;;;;;;25.13;18.10;;;;;;;9.27;53.67;96383.00;5025030;28;20056;-74
2021/10/27 08:26:15;;;;;;;25.30;17.33;;;;;;;9.32;53.55;96381.75;5025682;28;20025;-74
2021/10/27 08:28:42;;;;;;;24.42;16.55;;;;;;;9.43;53.39;96386.91;5025061;28;20029;-74
2021/10/27 08:34:33;;;;;;;28.25;18.17;;;;;;;9.60;52.70;96376.41;5026549;28;20029;-73
2021/10/27 08:36:28;;;;;;;27.17;17.98;;;;;;;9.64;52.31;96381.31;5028162;28;20041;-75
2021/10/27 08:38:53;;;;;;;28.23;19.02;;;;;;;9.68;52.64;96375.66;5007971;28;20071;-75
2021/10/27 08:41:19;;;;;;;25.75;17.90;;;;;;;9.75;52.18;96376.78;5026279;28;20125;-74
2021/10/27 08:43:45;;;;;;;28.23;17.75;;;;;;;9.73;52.31;96373.41;5024485;28;20090;-76
2021/10/27 08:46:13;;;;;;;27.35;18.27;;;;;;;9.73;52.60;96386.78;5026042;28;20083;-74
2021/10/27 08:48:39;;;;;;;29.83;19.35;;;;;;;9.75;53.55;96368.75;5024143;28;20025;-75
2021/10/27 08:51:05;;;;;;;26.42;17.88;;;;;;;9.87;52.61;96367.53;5024488;28;20358;-74
2021/10/27 08:53:32;;;;;;;30.95;19.52;;;;;;;10.07;52.21;96367.44;5025709;28;20025;-76
2021/10/27 08:56:02;;;;;;;30.13;19.73;;;;;;;10.19;51.60;96375.28;5024326;28;20036;-74
2021/10/27 08:58:31;;;;;;;34.78;19.75;;;;;;;10.24;51.65;96368.44;5026213;28;20033;-73
2021/10/27 09:03:42;;;;;;;26.40;17.38;;;;;;;10.44;51.60;96362.94;5026014;28;20029;-73
2021/10/27 09:34:21;;;;;;;24.85;17.17;;;;;;;11.07;50.25;96337.97;5035256;28;20408;-74
2021/10/27 09:36:55;;;;;;;24.77;17.05;;;;;;;11.11;50.27;96336.66;5032989;28;20505;-75
2021/10/27 09:44:55;;;;;;;18.92;13.77;;;;;;;11.24;50.41;96334.38;5038729;28;20564;-74
2021/10/27 10:06:31;;;;;;;19.67;14.38;;;;;;;11.48;49.24;96310.50;5025689;28;20039;-75
2021/10/27 10:08:57;;;;;;;22.55;15.18;;;;;;;11.48;49.17;96307.81;5033873;28;20026;-77
2021/10/27 10:11:26;;;;;;;23.35;15.05;;;;;;;11.56;49.12;96304.34;5013900;28;20050;-74
2021/10/27 10:13:57;;;;;;;24.85;16.67;;;;;;;11.58;49.17;96302.31;5028126;28;20029;-75
2021/10/27 10:16:22;;;;;;;26.15;16.05;;;;;;;11.48;50.52;96299.75;5026059;28;20022;-76
2021/10/27 10:18:48;;;;;;;22.25;15.88;;;;;;;11.49;49.02;96296.91;5019718;28;20036;-75
2021/10/27 10:21:14;;;;;;;21.60;14.95;;;;;;;11.50;48.73;96295.91;5028933;28;20033;-74
2021/10/27 10:23:40;;;;;;;25.55;16.48;;;;;;;11.57;48.79;96293.44;5029112;28;20427;-76
2021/10/27 10:26:08;;;;;;;22.73;16.85;;;;;;;11.48;49.20;96289.84;5040486;28;20104;-74
2021/10/27 10:28:41;;;;;;;23.38;15.55;;;;;;;11.48;49.90;96281.78;5040391;28;20039;-74
2021/10/27 10:31:08;;;;;;;18.85;14.15;;;;;;;11.67;50.32;96293.25;5036794;28;20057;-74
2021/10/27 10:33:41;;;;;;;23.20;15.73;;;;;;;11.68;49.23;96288.75;5034963;28;20060;-75
2021/10/27 10:36:26;;;;;;;19.05;12.43;;;;;;;11.69;48.44;96283.22;5016332;28;20021;-75
2021/10/27 10:45:07;;;;;;;20.48;12.55;;;;;;;12.02;48.65;96273.53;5026007;28;20041;-76
2021/10/27 10:56:38;;;;;;;16.05;11.18;;;;;;;12.16;48.68;96259.47;5027277;28;20083;-76
2021/10/27 10:59:33;;;;;;;14.07;10.98;;;;;;;12.35;48.53;96257.47;5030593;28;20417;-74
2021/10/27 11:41:54;;;;;;;14.70;9.07;;;;;;;13.67;45.50;96230.41;5018073;28;20029;-73
2021/10/27 11:44:44;;;;;;;14.80;9.15;;;;;;;13.78;44.27;96229.16;5028081;28;20026;-73
2021/10/27 11:47:10;;;;;;;10.82;8.20;;;;;;;13.83;43.83;96224.91;5025351;28;20021;-73
2021/10/27 11:49:39;;;;;;;12.38;8.88;;;;;;;13.84;44.47;96221.22;5017201;28;20479;-74
2021/10/27 11:52:05;;;;;;;12.50;9.60;;;;;;;14.03;45.66;96220.91;5027149;28;20029;-72
2021/10/27 11:54:31;;;;;;;12.35;9.32;;;;;;;14.06;44.44;96210.59;5012970;28;20086;-75
2021/10/27 11:57:08;;;;;;;11.40;9.43;;;;;;;14.11;43.96;96210.06;5024417;28;20126;-72
2021/10/27 11:59:44;;;;;;;12.77;9.02;;;;;;;14.19;43.37;96204.59;5013316;28;20029;-74
2021/10/27 12:02:09;;;;;;;15.05;9.23;;;;;;;14.21;43.30;96202.56;5041612;28;20120;-75
2021/10/27 12:04:36;;;;;;;10.90;8.90;;;;;;;14.39;43.60;96203.28;5044656;28;20040;-74
2021/10/27 12:07:34;;;;;;;11.00;8.95;;;;;;;14.39;42.77;96204.13;5031931;28;20029;-75
2021/10/27 12:10:10;;;;;;;24.75;9.55;;;;;;;14.65;44.88;96202.88;5024752;28;20523;-74
2021/10/27 12:17:51;;;;;;;;;;;;;;;14.90;43.08;96199.94;5010775;28;20091;-73
2021/10/27 12:20:47;;;;;;;10.65;8.05;;;;;;;14.94;42.61;96201.22;5044820;28;19916;-74
2021/10/27 12:23:26;;;;;;;9.30;8.30;;;;;;;15.04;42.50;96200.94;5045136;28;20098;-73
2021/10/27 12:26:05;;;;;;;10.63;8.13;;;;;;;15.14;42.46;96200.69;5026058;28;20032;-74
2021/10/27 12:28:34;;;;;;;10.73;8.57;;;;;;;15.27;42.05;96199.16;5032760;28;20040;-75
2021/10/27 12:31:17;;;;;;;12.38;8.70;;;;;;;15.33;42.81;96198.44;5044322;28;20025;-74
2021/10/27 12:33:43;;;;;;;11.02;7.88;;;;;;;15.43;43.15;96188.16;5043855;28;20029;-73
2021/10/27 12:36:34;;;;;;;10.18;8.20;;;;;;;15.46;42.71;96197.75;5045727;28;20037;-73
2021/10/27 12:42:02;;;;;;;9.63;7.85;;;;;;;15.62;41.06;96191.28;5044031;28;20477;-74
2021/10/27 12:44:27;;;;;;;10.05;7.85;;;;;;;15.73;41.93;96175.59;5044395;28;20096;-75
2021/10/27 12:47:06;;;;;;;12.63;7.88;;;;;;;15.86;41.58;96180.31;5043847;28;20037;-74
2021/10/27 12:49:32;;;;;;;11.77;7.82;;;;;;;15.92;41.08;96174.97;5028273;28;20120;-77
2021/10/27 12:51:57;;;;;;;12.77;8.43;;;;;;;16.04;40.60;96177.22;5044243;28;20032;-76
2021/10/27 12:54:29;;;;;;;14.65;8.38;;;;;;;16.04;40.49;96178.03;5045136;28;20029;-75
2021/10/27 12:57:05;;;;;;;11.47;8.70;;;;;;;16.00;40.13;96167.78;5045276;28;20475;-79
2021/10/27 12:59:32;;;;;;;12.23;8.52;;;;;;;16.04;40.87;96175.31;5018596;28;20060;-78
2021/10/27 13:02:20;;;;;;;18.25;8.75;;;;;;;16.18;41.11;96168.19;5012708;28;20037;-75
2021/10/27 13:04:55;;;;;;;14.75;8.20;;;;;;;16.36;41.28;96161.47;5024436;28;20063;-77
2021/10/27 13:07:35;;;;;;;13.93;8.32;;;;;;;16.50;39.97;96161.53;5025800;28;20047;-74
2021/10/27 13:13:04;;;;;;;12.00;7.95;;;;;;;16.40;38.89;96161.88;5048102;28;20071;-75
2021/10/27 13:16:09;;;;;;;10.68;7.85;;;;;;;16.54;39.58;96166.38;5048129;28;20031;-75
2021/10/27 13:31:47;;;;;;;11.95;8.77;;;;;;;16.88;38.12;96163.88;5048940;28;20035;-75
2021/10/27 13:34:12;;;;;;;14.30;7.40;;;;;;;16.96;38.65;96175.63;5046502;28;20089;-76
2021/10/27 13:36:38;;;;;;;10.32;7.82;;;;;;;16.97;38.60;96174.56;5046420;28;20033;-76
2021/10/27 13:39:04;;;;;;;16.48;9.18;;;;;;;17.03;38.75;96177.31;5046678;28;20029;-75
2021/10/27 13:41:30;;;;;;;14.50;8.88;;;;;;;17.10;38.16;96166.56;5048594;28;20063;-76
2021/10/27 13:44:02;;;;;;;13.88;7.88;;;;;;;17.16;39.00;96164.91;5047675;28;20029;-75
2021/10/27 13:46:52;;;;;;;16.67;8.20;;;;;;;17.23;38.67;96164.94;5048022;28;20438;-77
2021/10/27 13:57:52;;;;;;;13.77;7.90;;;;;;;17.24;38.07;96159.31;5034919;28;20040;-75
2021/10/27 14:08:43;;;;;;;14.77;8.52;;;;;;;17.15;37.73;96166.75;5044639;28;20024;-75
2021/10/27 14:13:44;;;;;;;12.15;7.40;;;;;;;17.08;37.87;96160.50;5044345;28;20037;-76
2021/10/27 15:21:41;;;;;;;13.35;8.18;;;;;;;13.80;42.86;96179.44;5043514;28;20124;-74
2021/10/27 15:33:23;;;;;;;10.50;6.15;;;;;;;13.31;42.92;96194.00;5009305;28;20597;-77
2021/10/27 15:36:04;;;;;;;13.25;6.25;;;;;;;13.19;42.44;96201.63;5019239;28;20042;-73
2021/10/27 15:41:28;;;;;;;16.55;6.18;;;;;;;13.05;42.42;96203.19;5044811;28;20128;-77
2021/10/27 15:51:47;;;;;;;53.15;10.80;;;;;;;12.73;43.34;96209.31;5030428;28;20040;-76
2021/10/27 15:54:14;;;;;;;61.53;10.88;;;;;;;12.70;43.57;96212.38;5029106;28;20029;-74
2021/10/27 15:56:39;;;;;;;36.97;7.97;;;;;;;12.54;43.79;96212.41;5044251;28;20395;-75
2021/10/27 15:59:05;;;;;;;28.40;7.55;;;;;;;12.50;44.13;96217.28;5043293;28;20472;-75
2021/10/27 16:01:31;;;;;;;16.13;6.57;;;;;;;12.41;44.42;96224.53;5045687;28;20041;-74
2021/10/27 16:03:56;;;;;;;13.02;7.10;;;;;;;12.29;45.31;96223.16;5046059;28;20029;-75
2021/10/27 16:06:24;;;;;;;14.55;7.78;;;;;;;12.15;44.97;96225.53;5044834;28;20030;-76